createdAt,value
2018-06-23T00:01:25.170Z,30.83
2018-06-23T00:04:02.518Z,31.93
2018-06-23T00:06:39.895Z,31.13
2018-06-23T00:09:20.744Z,30.70
2018-06-23T00:14:47.140Z,29.60
2018-06-23T00:17:34.742Z,32.07
2018-06-23T00:20:25.161Z,29.40
2018-06-23T00:23:02.663Z,28.73
2018-06-23T00:25:41.730Z,26.57
2018-06-23T00:28:30.166Z,28.00
2018-06-23T00:31:05.949Z,25.27
2018-06-23T00:33:44.989Z,25.73
2018-06-23T00:36:25.602Z,23.50
2018-06-23T00:39:19.561Z,22.10
2018-06-23T00:41:59.686Z,20.70
2018-06-23T00:44:37.935Z,22.83
2018-06-23T00:47:14.219Z,23.70
2018-06-23T00:50:01.089Z,21.37
2018-06-23T00:52:54.559Z,19.47
2018-06-23T00:55:31.688Z,17.97
2018-06-23T00:58:07.160Z,19.07
2018-06-23T01:00:44.962Z,18.47
2018-06-23T01:03:22.084Z,16.83
2018-06-23T01:05:58.890Z,16.70
2018-06-23T01:08:35.031Z,17.03
2018-06-23T01:11:13.818Z,16.93
2018-06-23T01:13:51.504Z,17.63
2018-06-23T01:19:25.954Z,18.00
2018-06-23T01:22:01.775Z,18.43
2018-06-23T01:24:45.605Z,18.27
2018-06-23T01:27:24.650Z,19.20
2018-06-23T01:30:06.338Z,18.47
2018-06-23T01:32:48.042Z,21.03
2018-06-23T01:35:26.519Z,20.00
2018-06-23T01:38:04.338Z,20.57
2018-06-23T01:40:40.981Z,21.47
2018-06-23T01:43:21.307Z,22.40
2018-06-23T01:45:55.848Z,23.30
2018-06-23T01:48:35.116Z,22.73
2018-06-23T01:51:10.893Z,25.13
2018-06-23T01:53:47.367Z,25.20
2018-06-23T01:56:27.367Z,25.53
2018-06-23T01:59:07.060Z,24.77
2018-06-23T02:01:42.845Z,25.23
2018-06-23T02:04:23.696Z,26.67
2018-06-23T02:07:04.834Z,26.60
2018-06-23T02:09:45.459Z,27.37
2018-06-23T02:12:26.460Z,26.00
2018-06-23T02:15:13.615Z,25.97
2018-06-23T02:17:52.333Z,26.27
2018-06-23T02:20:46.647Z,26.30
2018-06-23T13:24:57.084Z,24.60
